• Join FlightAware (Why Join?)
  • Login
  • US Flag 
06:31AM EDT


 

Airport Tracker/Info


-or-


 

Live Flight TrackerFlight Track Log ✈ SWA471 ✈ 21-Apr-2013 ✈ KMHT - KBWI

Flight Track Log - Related Links

Times and Time Zones

All times are in EDT time to prevent confusion due to time zone crossing. See the SWA471 flight status page for this flight to view local times or setup timezone preferences in your user account.

Time Position Orientation Groundspeed Altitude Reporting Facility
EDT Latitude Longitude Course Direction KTS MPH feet Rate Location/Type
04:01PM 42.9500 -71.4333 324° Northwest 158 182 900  Level KA90
04:02PM 42.9833 -71.4667 324° Northwest 192 221 2,900 2,100 Climbing KA90
04:02PM 43.0317 -71.4317 28° Northeast 240 276 4,500 1,620 Climbing Boston Center
04:03PM 43.0392 -71.3492 83° East 263 303 5,800 1,980 Climbing Boston Center
04:04PM 43.0464 -71.2497 84° East 263 303 8,500 2,520 Climbing Boston Center
04:05PM 43.0578 -71.1386 82° East 280 322 10,900 1,860 Climbing Boston Center
04:06PM 43.0750 -71.0075 80° East 320 368 12,300 1,980 Climbing Boston Center
04:07PM 43.0092 -70.9097 133° Southeast 337 388 14,900 2,880 Climbing Boston Center
04:08PM 42.8989 -70.9267 186° South 313 360 18,100 2,220 Climbing Boston Center
04:09PM 42.8139 -70.9628 197° South 334 384 19,400 1,980 Climbing Boston Center
04:10PM 42.7144 -71.0158 201° Southwest 354 407 22,100 2,220 Climbing Boston Center
04:11PM 42.6150 -71.0661 200° South 377 434 23,900 1,260 Climbing Boston Center
04:13PM 42.5411 -71.1581 223° Southwest 371 427 25,000 1,500 Climbing Boston Center
04:14PM 42.4825 -71.3253 245° Southwest 384 442 27,200 2,100 Climbing Boston Center
04:15PM 42.4397 -71.4414 244° Southwest 370 426 29,200 1,560 Climbing Boston Center
04:16PM 42.4008 -71.5347 241° Southwest 364 419 30,400 1,380 Climbing Boston Center
04:17PM 42.3497 -71.6564 240° Southwest 359 413 32,000 780 Climbing Boston Center
04:18PM 42.3047 -71.7719 242° Southwest 354 407 32,000  Level Boston Center
04:19PM 42.2594 -71.8931 243° Southwest 359 413 32,000  Level Boston Center
04:20PM 42.2119 -72.0139 242° Southwest 359 413 32,000  Level Boston Center
04:21PM 42.1625 -72.1319 241° Southwest 364 419 32,000  Level Boston Center
04:22PM 42.1106 -72.2639 242° Southwest 364 419 32,000  Level Boston Center
04:23PM 42.0628 -72.3842 242° Southwest 364 419 32,000  Level Boston Center
04:24PM 42.0147 -72.5044 242° Southwest 369 425 32,000  Level Boston Center
04:25PM 41.9689 -72.6217 242° Southwest 369 425 32,000  Level Boston Center
04:26PM 41.9103 -72.7303 234° Southwest 364 419 32,000  Level Boston Center
04:27PM 41.8411 -72.8247 226° Southwest 364 419 32,000  Level Boston Center
04:28PM 41.7719 -72.9272 228° Southwest 369 425 32,000  Level Boston Center
04:29PM 41.7775 -73.0608 273° West 338 389 32,000  Level Boston Center
04:30PM 41.7811 -73.1944 272° West 344 396 32,000  Level Boston Center
04:31PM 41.6972 -73.2686 213° Southwest 318 366 32,000  Level Boston Center
04:32PM 41.6069 -73.3369 210° Southwest 336 387 32,000  Level Boston Center
04:34PM 41.3967 -73.4953 209° Southwest 376 433 32,000  Level New York Center
04:35PM 41.3056 -73.5633 209° Southwest 376 433 32,000  Level New York Center
04:36PM 41.2367 -73.6572 226° Southwest 371 427 32,000  Level New York Center
04:37PM 41.1758 -73.7619 232° Southwest 359 413 32,000  Level New York Center
04:38PM 41.1147 -73.8639 232° Southwest 366 421 32,000 -240 Level New York Center
04:39PM 41.0558 -73.9658 233° Southwest 361 415 31,600 -720 Descending New York Center
04:40PM 40.9947 -74.0672 231° Southwest 361 415 30,600 -1,020 Descending New York Center
04:41PM 40.9336 -74.1714 232° Southwest 361 415 29,600 -1,020 Descending New York Center
04:42PM 40.8661 -74.2722 229° Southwest 366 421 28,600 -1,020 Descending New York Center
04:43PM 40.8047 -74.3733 231° Southwest 366 421 27,600 -960 Descending New York Center
04:44PM 40.7450 -74.4853 235° Southwest 366 421 26,700 -900 Descending New York Center
04:45PM 40.7178 -74.6153 255° West 361 415 25,900 -720 Descending New York Center
04:46PM 40.6883 -74.7503 254° West 374 430 25,400 -780 Descending New York Center
04:47PM 40.6364 -74.8703 240° Southwest 379 436 24,400 -1,020 Descending New York Center
04:48PM 40.5781 -74.9844 236° Southwest 386 444 23,400 -1,020 Descending New York Center
04:49PM 40.5117 -75.0950 232° Southwest 391 450 22,400 -1,020 Descending New York Center
04:50PM 40.4450 -75.2053 232° Southwest 391 450 21,400 -1,020 Descending New York Center
04:51PM 40.3681 -75.3094 226° Southwest 396 456 20,400 -960 Descending New York Center
04:52PM 40.2756 -75.3850 212° Southwest 390 449 19,500 -900 Descending New York Center
04:53PM 40.1875 -75.4525 210° Southwest 405 466 18,600 -780 Descending New York Center
04:54PM 40.0839 -75.5378 212° Southwest 412 474 18,000 -360 Descending New York Center
04:55PM 40.0019 -75.6025 211° Southwest 401 461 18,000  Level New York Center
04:56PM 39.9044 -75.6933 216° Southwest 401 461 18,000 -300 Level New York Center
04:57PM 39.8972 -75.8172 266° West 334 384 17,400 -840 Descending New York Center
04:58PM 39.9033 -75.9150 275° West 312 359 16,400 -1,140 Descending New York Center
05:00PM 39.9167 -76.1500 274° West 273 314 13,900 -1,080 Descending Potomac TRACON
05:01PM 39.9167 -76.2500 270° West 274 315 13,000 -900 Descending Potomac TRACON
05:02PM 39.8500 -76.2833 201° Southwest 286 329 12,100 -540 Descending Potomac TRACON
05:03PM 39.7667 -76.2833 180° South 278 320 12,000 -540 Descending Potomac TRACON
05:04PM 39.6833 -76.3000 189° South 283 326 11,000 -900 Descending Potomac TRACON
05:05PM 39.6167 -76.3000 180° South 276 318 10,100 -960 Descending Potomac TRACON
05:06PM 39.5667 -76.3833 232° Southwest 269 310 9,100 -1,020 Descending Potomac TRACON
05:07PM 39.5500 -76.4667 255° West 271 312 8,100 -1,020 Descending Potomac TRACON
05:08PM 39.5333 -76.5667 258° West 270 311 7,100 -1,020 Descending Potomac TRACON
05:09PM 39.5000 -76.6333 237° Southwest 259 298 6,100 -1,020 Descending Potomac TRACON
05:10PM 39.4667 -76.7167 243° Southwest 261 300 5,200 -780 Descending Potomac TRACON
05:11PM 39.4500 -76.8167 258° West 262 302 4,600 -600 Descending Potomac TRACON
05:12PM 39.4167 -76.8833 237° Southwest 250 288 4,100 -420 Descending Potomac TRACON
05:13PM 39.3833 -76.9500 237° Southwest 229 264 3,900 -120 Descending Potomac TRACON
05:14PM 39.3167 -76.9500 180° South 221 254 3,900 -180 Level Potomac TRACON
05:15PM 39.2667 -76.9167 153° Southeast 219 252 3,600 -600 Descending Potomac TRACON
05:16PM 39.2167 -76.8667 142° Southeast 214 246 2,700 -720 Descending Potomac TRACON
05:17PM 39.1833 -76.8000 123° Southeast 191 220 2,200 -840 Descending Potomac TRACON
05:18PM 39.1833 -76.7500 90° East 162 186 1,200 -1,020 Descending Potomac TRACON
05:20PM 39.1667 -76.6667 270° West  Level FlightAware Approximate
05:27PM 39.1754 -76.6683 270° West  Level Estimated
05:28PM 39.1754 -76.6683 270° West  Level Estimated
05:29PM 39.1754 -76.6683 270° West  Level Estimated